Time;durP1;ratioP1;P1;durP2;ratioP2;P2;SDS_P1;SDS_P2;PMS_P1;PMS_P2;Temp;Humidity;BMP_temperature;BMP_pressure;BME280_temperature;BME280_humidity;BME280_pressure;Samples;Min_cycle;Max_cycle;Signal;HPM_P1;HPM_P2
2023/12/27 15:24:26;;;;;;;7.00;3.70;;;;;;;7.06;100.00;93268.22;5126255;27;20306;-76
2023/12/27 15:26:51;;;;;;;6.10;3.45;;;;;;;7.06;100.00;93265.63;5088040;28;20380;-76
2023/12/27 15:29:17;;;;;;;7.70;3.55;;;;;;;7.01;100.00;93263.75;5106025;28;20047;-76
2023/12/27 15:31:43;;;;;;;8.70;3.50;;;;;;;6.96;100.00;93262.91;5093055;28;20029;-76
2023/12/27 15:34:10;;;;;;;8.40;3.78;;;;;;;6.93;100.00;93269.38;5068118;28;20040;-76
2023/12/27 15:36:38;;;;;;;7.20;3.63;;;;;;;6.88;100.00;93275.31;5067896;28;20044;-76
2023/12/27 15:39:04;;;;;;;9.50;3.90;;;;;;;6.80;100.00;93262.75;5085834;28;20032;-76
2023/12/27 15:41:30;;;;;;;10.55;4.05;;;;;;;6.77;100.00;93278.84;5068116;28;20123;-76
2023/12/27 15:44:02;;;;;;;9.15;4.60;;;;;;;6.67;100.00;93273.53;5066703;28;20403;-76
2023/12/27 15:46:31;;;;;;;7.75;4.05;;;;;;;6.61;100.00;93275.28;5067283;28;20403;-76
2023/12/27 15:48:57;;;;;;;9.10;4.07;;;;;;;6.56;100.00;93282.25;5085646;28;20024;-77
2023/12/27 15:51:37;;;;;;;9.50;4.68;;;;;;;6.49;100.00;93284.25;5066878;28;20259;-76
2023/12/27 15:54:04;;;;;;;7.05;4.40;;;;;;;6.41;100.00;93280.22;5085021;28;20044;-76
2023/12/27 15:56:32;;;;;;;9.65;4.50;;;;;;;6.41;100.00;93291.41;5067752;28;20033;-76
2023/12/27 15:58:59;;;;;;;7.63;4.72;;;;;;;6.41;100.00;93291.41;5067527;28;20040;-76
2023/12/27 16:01:26;;;;;;;6.78;4.47;;;;;;;6.38;100.00;93286.69;5085388;28;20402;-76
2023/12/27 16:03:53;;;;;;;8.27;4.32;;;;;;;6.36;100.00;93288.75;5085151;28;20426;-76
2023/12/27 16:06:30;;;;;;;10.02;4.63;;;;;;;6.39;100.00;93290.84;5066787;28;20046;-76
2023/12/27 16:08:55;;;;;;;8.10;4.47;;;;;;;6.38;100.00;93293.72;5085098;28;20519;-76
2023/12/27 16:11:21;;;;;;;8.82;4.80;;;;;;;6.38;100.00;93298.91;5066579;28;20031;-76
2023/12/27 16:13:48;;;;;;;13.50;5.30;;;;;;;6.30;100.00;93296.72;5085055;28;20048;-76
2023/12/27 16:16:14;;;;;;;10.05;5.60;;;;;;;6.29;100.00;93290.75;5084770;28;20043;-76
2023/12/27 16:18:41;;;;;;;10.40;5.95;;;;;;;6.35;100.00;93301.97;5084731;28;20021;-75
2023/12/27 16:21:09;;;;;;;11.15;5.43;;;;;;;6.34;100.00;93300.41;5084948;28;20052;-76
2023/12/27 16:23:35;;;;;;;11.57;4.97;;;;;;;6.34;100.00;93308.22;5071469;28;20040;-76
2023/12/27 16:26:01;;;;;;;9.73;5.03;;;;;;;6.35;100.00;93307.19;5064408;28;20525;-76
2023/12/27 16:28:27;;;;;;;8.30;4.30;;;;;;;6.37;100.00;93310.34;5064389;28;20423;-76
2023/12/27 16:30:53;;;;;;;9.35;4.18;;;;;;;6.36;100.00;93308.78;5046163;28;20056;-76
2023/12/27 16:33:19;;;;;;;9.88;4.22;;;;;;;6.35;100.00;93314.97;5064035;28;20508;-76
2023/12/27 16:35:45;;;;;;;9.25;4.40;;;;;;;6.34;100.00;93309.00;5032754;28;20127;-76
2023/12/27 16:38:12;;;;;;;6.53;4.20;;;;;;;6.29;100.00;93318.56;5050747;28;20099;-76
2023/12/27 16:40:38;;;;;;;6.50;3.80;;;;;;;6.26;100.00;93306.81;5016458;28;20048;-76
2023/12/27 16:43:05;;;;;;;7.57;4.40;;;;;;;6.27;100.00;93308.38;5033693;28;20424;-75
2023/12/27 16:45:31;;;;;;;7.75;4.28;;;;;;;6.27;100.00;93308.38;5051295;28;20032;-76
2023/12/27 16:48:00;;;;;;;7.78;4.03;;;;;;;6.20;100.00;93311.16;5051161;28;20040;-75
2023/12/27 16:50:30;;;;;;;6.75;3.60;;;;;;;6.20;100.00;93321.56;5052761;28;20040;-78
2023/12/27 16:53:16;;;;;;;9.85;3.90;;;;;;;6.18;100.00;93320.22;5057803;28;20508;-78
2023/12/27 16:55:43;;;;;;;7.78;4.30;;;;;;;6.16;100.00;93319.66;5056437;28;20045;-78
2023/12/27 16:58:31;;;;;;;7.32;3.75;;;;;;;6.14;100.00;93321.72;5057140;28;20049;-78
2023/12/27 17:00:57;;;;;;;6.32;3.53;;;;;;;6.13;100.00;93320.16;5056307;28;20033;-78
2023/12/27 17:03:22;;;;;;;7.55;3.63;;;;;;;6.13;100.00;93317.56;5056573;28;20048;-78
2023/12/27 17:05:53;;;;;;;7.60;3.70;;;;;;;6.11;100.00;93311.81;5056736;28;20381;-78
2023/12/27 17:08:19;;;;;;;9.60;3.42;;;;;;;6.11;100.00;93314.41;5056491;28;20045;-78
2023/12/27 17:10:48;;;;;;;10.50;3.97;;;;;;;6.10;100.00;93318.78;5037658;28;20044;-78
2023/12/27 17:13:14;;;;;;;9.88;4.55;;;;;;;6.10;100.00;93325.81;5052954;28;20052;-76
2023/12/27 17:15:40;;;;;;;8.90;5.05;;;;;;;6.08;100.00;93320.88;5050109;28;20041;-76
2023/12/27 17:18:06;;;;;;;9.65;5.38;;;;;;;6.07;100.00;93323.69;5047144;28;20123;-76
2023/12/27 17:20:31;;;;;;;7.10;4.65;;;;;;;6.08;100.00;93322.66;5049943;28;20044;-76
2023/12/27 17:22:57;;;;;;;10.38;4.50;;;;;;;6.02;100.00;93322.59;5050208;28;20044;-76
2023/12/27 17:25:24;;;;;;;9.57;4.93;;;;;;;5.99;100.00;93317.06;5032493;28;20052;-76
2023/12/27 17:27:50;;;;;;;7.05;4.07;;;;;;;6.04;100.00;93320.53;5032473;28;20072;-76
2023/12/27 17:30:15;;;;;;;10.88;5.00;;;;;;;6.02;100.00;93327.78;5032442;28;20052;-76
2023/12/27 17:32:43;;;;;;;8.27;4.85;;;;;;;6.02;100.00;93333.00;5049866;28;20065;-76
2023/12/27 17:35:09;;;;;;;11.55;4.55;;;;;;;6.02;100.00;93330.38;5039101;28;20048;-76
2023/12/27 17:37:38;;;;;;;7.07;4.60;;;;;;;6.03;100.00;93329.38;5036228;28;20091;-76
2023/12/27 17:40:05;;;;;;;11.95;5.57;;;;;;;6.02;100.00;93330.38;5030130;28;20426;-77
2023/12/27 17:42:39;;;;;;;9.45;5.22;;;;;;;6.09;100.00;93342.44;5012693;28;20075;-76
2023/12/27 17:45:06;;;;;;;9.23;4.70;;;;;;;6.13;100.00;93343.56;5029609;28;20041;-75
2023/12/27 17:47:32;;;;;;;8.20;4.97;;;;;;;6.14;100.00;93339.91;5043620;28;20037;-76
2023/12/27 17:49:58;;;;;;;32.03;16.02;;;;;;;6.11;100.00;93348.19;5046872;28;20048;-76
2023/12/27 17:52:28;;;;;;;31.73;19.02;;;;;;;6.10;100.00;93344.00;5042723;28;20038;-76
2023/12/27 17:54:55;;;;;;;15.75;7.85;;;;;;;6.09;100.00;93343.22;5039864;28;20044;-76
2023/12/27 17:57:20;;;;;;;9.65;5.40;;;;;;;6.09;100.00;93347.66;5047279;28;20085;-76
2023/12/27 17:59:46;;;;;;;9.15;5.25;;;;;;;6.08;100.00;93340.84;5032494;28;20029;-76
2023/12/27 18:02:12;;;;;;;13.15;4.90;;;;;;;6.08;100.00;93335.66;5040041;28;20052;-76
2023/12/27 18:04:39;;;;;;;9.80;5.00;;;;;;;5.99;100.00;93345.66;5033386;28;20040;-76
2023/12/27 18:07:07;;;;;;;8.70;4.80;;;;;;;6.06;100.00;93348.91;5050378;28;20110;-76
2023/12/27 18:09:34;;;;;;;9.05;4.95;;;;;;;6.14;100.00;93355.50;5049324;28;20041;-75
2023/12/27 18:12:00;;;;;;;12.05;4.13;;;;;;;6.23;100.00;93354.09;5049302;28;20123;-76
2023/12/27 18:14:25;;;;;;;10.38;4.40;;;;;;;6.08;100.00;93356.44;5038889;28;20516;-75
2023/12/27 18:16:51;;;;;;;8.93;4.90;;;;;;;6.00;100.00;93350.63;5047456;28;20060;-75
2023/12/27 18:19:16;;;;;;;7.70;4.50;;;;;;;5.95;100.00;93355.75;5031141;28;20055;-76
2023/12/27 18:21:45;;;;;;;8.90;4.47;;;;;;;5.90;100.00;93353.06;5048225;28;20051;-76
2023/12/27 18:24:12;;;;;;;9.18;4.18;;;;;;;5.86;100.00;93359.75;5010959;28;20056;-76
2023/12/27 18:26:39;;;;;;;10.52;4.25;;;;;;;5.83;100.00;93360.19;5034371;28;20059;-76
2023/12/27 18:29:04;;;;;;;12.93;5.20;;;;;;;5.82;100.00;93362.00;5031129;28;20496;-76
2023/12/27 18:31:35;;;;;;;7.15;4.75;;;;;;;5.82;100.00;93363.81;5048639;28;20055;-75
2023/12/27 18:34:01;;;;;;;7.18;4.32;;;;;;;5.79;100.00;93359.88;5049263;28;20037;-76
2023/12/27 18:36:27;;;;;;;8.60;4.32;;;;;;;5.78;100.00;93360.13;5049702;28;20366;-75
2023/12/27 18:38:52;;;;;;;9.63;4.90;;;;;;;5.80;100.00;93368.47;5031016;28;20094;-75
2023/12/27 18:41:19;;;;;;;8.35;4.75;;;;;;;5.79;100.00;93372.88;5049098;28;20040;-75
2023/12/27 18:43:44;;;;;;;10.98;5.60;;;;;;;5.78;100.00;93371.28;5048374;28;20025;-76
2023/12/27 18:46:10;;;;;;;10.05;5.45;;;;;;;5.78;100.00;93370.50;5048772;28;20543;-75
2023/12/27 18:48:46;;;;;;;9.13;4.80;;;;;;;5.77;100.00;93368.94;5048453;28;20063;-75
2023/12/27 18:51:14;;;;;;;8.63;5.00;;;;;;;5.77;100.00;93377.53;5048102;28;20041;-76
2023/12/27 18:53:40;;;;;;;8.15;5.28;;;;;;;5.76;100.00;93375.94;5048614;28;20430;-75
2023/12/27 18:56:06;;;;;;;14.32;4.88;;;;;;;5.79;100.00;93379.91;5013137;28;20053;-75
2023/12/27 18:58:31;;;;;;;8.60;4.60;;;;;;;5.78;100.00;93378.31;5021615;28;20064;-76
2023/12/27 19:01:01;;;;;;;9.82;4.88;;;;;;;5.77;100.00;93381.94;5048536;28;20036;-75
2023/12/27 19:03:27;;;;;;;10.27;5.22;;;;;;;5.74;100.00;93382.38;5030509;28;20056;-75
2023/12/27 19:05:52;;;;;;;8.43;5.15;;;;;;;5.76;100.00;93385.53;5048272;28;20029;-76
2023/12/27 19:08:18;;;;;;;11.20;5.03;;;;;;;5.77;100.00;93387.13;5048122;28;20041;-76
2023/12/27 19:10:44;;;;;;;9.25;5.32;;;;;;;5.77;100.00;93389.72;5039931;28;20415;-75
2023/12/27 19:13:09;;;;;;;8.32;5.25;;;;;;;5.75;100.00;93394.38;5050178;28;20024;-75
2023/12/27 19:15:37;;;;;;;10.30;5.80;;;;;;;5.74;100.00;93388.38;5068182;28;20048;-76
2023/12/27 19:18:04;;;;;;;11.75;5.18;;;;;;;5.75;100.00;93392.56;5065619;28;20384;-75
2023/12/27 19:20:29;;;;;;;12.07;5.32;;;;;;;5.74;100.00;93388.38;5048429;28;20122;-75
2023/12/27 19:22:55;;;;;;;10.63;5.43;;;;;;;5.74;100.00;93397.97;5048257;28;20464;-75
2023/12/27 19:25:20;;;;;;;11.40;5.38;;;;;;;5.73;100.00;93396.41;5030547;28;20464;-76
2023/12/27 19:27:46;;;;;;;7.93;5.20;;;;;;;5.74;100.00;93393.59;5030346;28;20040;-75
2023/12/27 19:30:11;;;;;;;9.75;5.72;;;;;;;5.75;100.00;93394.38;5048019;28;20044;-75
2023/12/27 19:32:37;;;;;;;8.52;5.35;;;;;;;5.74;100.00;93401.38;5047763;28;20112;-76
2023/12/27 19:35:03;;;;;;;8.30;5.30;;;;;;;5.78;100.00;93399.88;5048180;28;20028;-76
2023/12/27 19:37:28;;;;;;;12.10;8.00;;;;;;;5.77;100.00;93400.91;5048012;28;20060;-75
2023/12/27 19:39:54;;;;;;;18.95;8.77;;;;;;;5.76;100.00;93398.53;5030563;28;20028;-76
2023/12/27 19:42:23;;;;;;;12.18;6.10;;;;;;;5.75;100.00;93404.75;5048301;28;20116;-75
2023/12/27 19:44:49;;;;;;;29.30;11.70;;;;;;;5.75;100.00;93405.53;5040715;28;20068;-75
2023/12/27 19:47:15;;;;;;;16.55;7.50;;;;;;;5.75;100.00;93407.34;5010314;28;20029;-75
2023/12/27 19:49:40;;;;;;;13.98;6.93;;;;;;;5.73;100.00;93404.97;5040830;28;20048;-76
2023/12/27 19:52:06;;;;;;;10.15;4.90;;;;;;;5.71;100.00;93411.44;5029561;28;20139;-76
2023/12/27 19:54:32;;;;;;;8.85;4.60;;;;;;;5.70;100.00;93408.06;5047801;28;20063;-74
2023/12/27 19:56:58;;;;;;;19.45;7.10;;;;;;;5.66;100.00;93411.34;5047793;28;20084;-76
2023/12/27 19:59:23;;;;;;;25.38;12.38;;;;;;;5.69;100.00;93418.66;5031100;28;20128;-75
2023/12/27 20:01:49;;;;;;;19.52;8.73;;;;;;;5.68;100.00;93419.72;5047629;28;20051;-75
2023/12/27 20:04:15;;;;;;;31.98;14.18;;;;;;;5.63;100.00;93407.41;5047812;28;20028;-76
2023/12/27 20:06:40;;;;;;;33.67;15.32;;;;;;;5.60;100.00;93416.44;5045445;28;20400;-76
2023/12/27 20:09:08;;;;;;;46.80;19.08;;;;;;;5.55;100.00;93413.75;5042862;28;20041;-75
2023/12/27 20:11:34;;;;;;;51.58;19.83;;;;;;;5.46;100.00;93407.34;5051353;28;20033;-75
2023/12/27 20:13:59;;;;;;;56.08;21.80;;;;;;;5.42;100.00;93399.22;5030516;28;20025;-75
2023/12/27 20:16:27;;;;;;;38.42;20.98;;;;;;;5.35;100.00;93403.78;5046835;28;20033;-76
2023/12/27 20:18:53;;;;;;;21.50;12.45;;;;;;;5.28;100.00;93404.94;5051076;28;20040;-75
2023/12/27 20:21:19;;;;;;;10.75;6.80;;;;;;;5.21;100.00;93403.25;5051319;28;20021;-76
2023/12/27 20:23:44;;;;;;;9.68;4.82;;;;;;;5.13;100.00;93403.59;5051326;28;20049;-76
2023/12/27 20:26:10;;;;;;;9.85;4.07;;;;;;;5.01;100.00;93406.22;5051344;28;20040;-76
2023/12/27 20:28:36;;;;;;;7.88;3.90;;;;;;;4.98;100.00;93404.09;5024171;28;20029;-75
2023/12/27 20:31:02;;;;;;;7.07;3.60;;;;;;;4.86;100.00;93402.53;5051073;28;20056;-76
2023/12/27 20:33:28;;;;;;;6.93;3.42;;;;;;;4.80;100.00;93406.84;5051236;28;20086;-75
2023/12/27 20:35:54;;;;;;;6.88;3.30;;;;;;;4.73;100.00;93409.56;5049680;28;20435;-75
2023/12/27 20:38:21;;;;;;;8.55;3.85;;;;;;;4.64;100.00;93407.50;5033263;28;20036;-75
2023/12/27 20:40:47;;;;;;;8.63;3.85;;;;;;;4.54;100.00;93400.31;5050685;28;20047;-75
2023/12/27 20:43:12;;;;;;;7.93;4.28;;;;;;;4.47;100.00;93407.41;5016638;28;20033;-75
2023/12/27 20:45:38;;;;;;;11.63;4.47;;;;;;;4.42;100.00;93415.09;5032936;28;20064;-76
2023/12/27 20:48:04;;;;;;;7.88;4.90;;;;;;;4.34;100.00;93416.97;5050939;28;20056;-76
2023/12/27 20:50:30;;;;;;;6.55;4.30;;;;;;;4.27;100.00;93411.13;5051538;28;20033;-76
2023/12/27 20:52:55;;;;;;;10.35;4.18;;;;;;;4.22;100.00;93408.41;5033575;28;20388;-76
2023/12/27 20:55:21;;;;;;;11.27;6.00;;;;;;;4.20;100.00;93415.63;5050926;28;20231;-75
2023/12/27 20:57:47;;;;;;;11.05;7.50;;;;;;;4.16;100.00;93414.50;5050536;28;20028;-76
2023/12/27 21:00:33;;;;;;;13.57;7.10;;;;;;;4.17;100.00;93411.69;5038740;28;20037;-77
2023/12/27 21:02:59;;;;;;;13.02;8.48;;;;;;;4.13;100.00;93415.72;5016407;28;20041;-78
2023/12/27 21:05:38;;;;;;;13.00;7.38;;;;;;;4.03;100.00;93407.72;5030449;28;20047;-77
2023/12/27 21:08:03;;;;;;;12.85;6.57;;;;;;;4.08;100.00;93422.63;5036297;28;20069;-77
2023/12/27 21:10:29;;;;;;;12.10;7.65;;;;;;;4.01;100.00;93414.13;5054051;28;20053;-78
2023/12/27 21:12:58;;;;;;;13.68;7.55;;;;;;;3.99;100.00;93422.13;5036002;28;20094;-78
2023/12/27 21:15:23;;;;;;;11.38;5.63;;;;;;;3.93;100.00;93412.66;5053597;28;20523;-78
2023/12/27 21:17:49;;;;;;;11.90;6.60;;;;;;;3.89;100.00;93417.47;5054534;28;20033;-78
2023/12/27 21:20:21;;;;;;;10.40;5.80;;;;;;;3.85;100.00;93423.31;5053376;28;20043;-77
2023/12/27 21:22:47;;;;;;;;;;;;;;;3.84;100.00;93419.16;5054199;28;20484;-77
2023/12/27 21:25:12;;;;;;;7.60;4.82;;;;;;;3.76;100.00;93415.09;5053623;28;19952;-77
2023/12/27 21:28:25;;;;;;;9.93;4.90;;;;;;;3.75;100.00;93416.09;5053258;28;20037;-78
2023/12/27 21:30:51;;;;;;;7.93;4.97;;;;;;;3.69;100.00;93414.38;5053272;28;20025;-78
2023/12/27 21:33:17;;;;;;;9.10;5.18;;;;;;;3.64;100.00;93420.22;5053550;28;20116;-77
2023/12/27 21:35:59;;;;;;;9.35;4.95;;;;;;;3.48;100.00;93403.50;5035384;28;20098;-78
2023/12/27 21:38:25;;;;;;;9.05;4.88;;;;;;;3.59;100.00;93416.72;5035514;28;20037;-77
2023/12/27 21:40:51;;;;;;;10.02;4.70;;;;;;;3.55;100.00;93427.50;5052835;28;20044;-77
2023/12/27 21:43:33;;;;;;;8.07;5.13;;;;;;;3.52;100.00;93420.19;5053152;28;20033;-77
2023/12/27 21:45:59;;;;;;;;;;;;;;;3.49;100.00;93420.63;5053567;28;20079;-77
2023/12/27 21:48:24;;;;;;;10.95;4.43;;;;;;;3.51;100.00;93412.63;5052873;28;19965;-78
2023/12/27 21:50:50;;;;;;;8.15;4.60;;;;;;;3.49;100.00;93410.28;5035193;28;20029;-77
2023/12/27 21:53:15;;;;;;;8.38;4.93;;;;;;;3.50;100.00;93414.44;5035076;28;20570;-78
2023/12/27 21:55:41;;;;;;;8.00;4.85;;;;;;;3.51;100.00;93418.63;5052751;28;20127;-78
2023/12/27 21:58:15;;;;;;;8.23;4.97;;;;;;;3.47;100.00;93412.31;5052822;28;20420;-77
2023/12/27 22:00:41;;;;;;;12.10;4.57;;;;;;;3.48;100.00;93419.03;5052859;28;20041;-77
2023/12/27 22:07:01;;;;;;;10.40;4.18;;;;;;;3.50;100.00;93419.63;5052885;28;20175;-77
2023/12/27 22:09:32;;;;;;;8.63;4.10;;;;;;;3.52;100.00;93415.00;5052699;28;20429;-77
2023/12/27 22:11:58;;;;;;;10.83;5.33;;;;;;;3.55;100.00;93414.56;5035180;28;20043;-78
2023/12/27 22:14:23;;;;;;;10.15;4.57;;;;;;;3.53;100.00;93421.78;5052489;28;20036;-78
2023/12/27 22:17:01;;;;;;;6.57;4.00;;;;;;;3.49;100.00;93422.41;5034873;28;20045;-77
